INFORMAÇÕES METEOROLÓGICAS
METAR FOR SBHT
ADDS - METARS form results

(1959 UTC 09 December 2018)
Data provider http://aviationweather.gov/metar/data/
 
METAR text: SBHT 091900Z 34006KT 9999 FEW023 28/25 Q1011
Conditions at: SBHT (ALTAMIRA , BR) observed 1900 UTC 09 December 2018
Temperature: 28.0°C (82°F)
Dewpoint: 25.0°C (77°F) [RH = 84%]
Pressure (altimeter): 29.85 inches Hg (1011.0 mb)
Winds: from the NNW (340 degrees) at 7 MPH (6 knots; 3.1 m/s)
Visibility: 6 or more miles (10+ km)
Ceiling: at least 12,000 feet AGL
Clouds: few clouds at 2300 feet AGL
Weather: no significant weather observed at this time

 MAPA DO AEROPORTO

 INFORMAÇÕES DA PISTA
Pista 7 Tamanho da pista 6572 ft Largura da pista 125 ft
Elevação da pista 0 ft Ranhura da pista 0 ft Proa da pista 0
Pista 25 Tamanho da pista 6572 ft Largura da pista 125 ft
Elevação da pista 0 ft Ranhura da pista 0 ft Proa da pista 0

 FREQUÊNCIAS DO AEROPORTO
Tipo AFIS Nome RDO Frequência 125.85 MHZ

 AUXÍLIOS DE NAVEGAÇÃO PRÓXIMOS AO AEROPORTO
Tipo VOR Nome Altamira Frequência 113200 KHZ
Tipo NDB Nome Altamira Frequência 295 KHZ





Powered by Virtual Airlines Manager [v2.6.2]